createdAt,value
2022-10-18T00:00:48.130Z,100824.19
2022-10-18T00:03:49.929Z,100827.72
2022-10-18T00:06:51.684Z,100823.78
2022-10-18T00:09:54.545Z,100813.84
2022-10-18T00:12:56.270Z,100820.25
2022-10-18T00:16:01.221Z,100814.81
2022-10-18T00:19:03.403Z,100821.00
2022-10-18T00:22:05.197Z,100813.09
2022-10-18T00:25:08.656Z,100808.84
2022-10-18T00:28:10.408Z,100806.28
2022-10-18T00:31:21.072Z,100796.69
2022-10-18T00:34:22.863Z,100792.44
2022-10-18T00:37:24.762Z,100800.44
2022-10-18T00:40:26.614Z,100793.38
2022-10-18T00:43:28.496Z,100784.53
2022-10-18T00:46:33.138Z,100786.34
2022-10-18T00:49:41.100Z,100788.28
2022-10-18T00:52:48.440Z,100788.16
2022-10-18T00:55:50.821Z,100776.75
2022-10-18T00:58:52.797Z,100782.41
2022-10-18T01:01:54.561Z,100781.56
2022-10-18T01:04:56.450Z,100773.78
2022-10-18T01:08:28.388Z,100784.75
2022-10-18T01:11:58.329Z,100776.97
2022-10-18T01:15:17.142Z,100765.03
2022-10-18T01:18:37.565Z,100768.13
2022-10-18T01:21:48.686Z,100775.56
2022-10-18T01:25:15.134Z,100771.31
2022-10-18T01:28:49.944Z,100763.63
2022-10-18T01:32:01.533Z,100763.00
2022-10-18T01:35:08.098Z,100759.69
2022-10-18T01:38:17.161Z,100759.91
2022-10-18T01:41:22.505Z,100765.44
2022-10-18T01:44:26.957Z,100757.53
2022-10-18T01:47:29.467Z,100749.66
2022-10-18T01:50:33.906Z,100752.31
2022-10-18T01:53:35.959Z,100747.00
2022-10-18T01:57:02.661Z,100741.56
2022-10-18T02:00:22.241Z,100744.78
2022-10-18T02:03:28.095Z,100735.84
2022-10-18T02:06:35.758Z,100735.63
2022-10-18T02:09:46.978Z,100733.59
2022-10-18T02:12:51.076Z,100732.53
2022-10-18T02:15:59.604Z,100731.47
2022-10-18T02:19:09.238Z,100728.50
2022-10-18T02:22:12.897Z,100715.94
2022-10-18T02:25:20.387Z,100721.69
2022-10-18T02:28:22.522Z,100725.94
2022-10-18T02:31:37.493Z,100722.94
2022-10-18T02:34:46.652Z,100721.56
2022-10-18T02:37:50.413Z,100727.31
2022-10-18T02:40:52.298Z,100717.28
2022-10-18T02:43:54.449Z,100718.78
2022-10-18T02:46:56.277Z,100707.78
2022-10-18T02:49:58.048Z,100712.91
2022-10-18T02:52:59.806Z,100711.94
2022-10-18T02:56:03.238Z,100708.44
2022-10-18T02:59:07.372Z,100718.22
2022-10-18T03:02:09.104Z,100721.00
2022-10-18T03:05:10.853Z,100720.06
2022-10-18T03:08:12.639Z,100709.50
2022-10-18T03:11:14.471Z,100702.56
2022-10-18T03:14:16.239Z,100705.25
2022-10-18T03:17:17.976Z,100694.78
2022-10-18T03:20:19.954Z,100695.00
2022-10-18T03:23:21.762Z,100695.34
2022-10-18T03:26:23.475Z,100698.00
2022-10-18T03:29:25.268Z,100701.41
2022-10-18T03:32:27.080Z,100697.69
2022-10-18T03:35:28.892Z,100692.13
2022-10-18T03:38:31.134Z,100684.66
2022-10-18T03:41:33.517Z,100683.47
2022-10-18T03:44:35.294Z,100679.63
2022-10-18T03:47:37.045Z,100669.59
2022-10-18T03:50:38.930Z,100660.41
2022-10-18T03:53:40.720Z,100669.16
2022-10-18T03:56:42.421Z,100668.19
2022-10-18T03:59:44.229Z,100661.03
2022-10-18T04:02:46.428Z,100668.09
2022-10-18T04:05:49.286Z,100682.16
2022-10-18T04:08:51.048Z,100674.78
2022-10-18T04:11:53.061Z,100678.06
2022-10-18T04:14:55.708Z,100661.84
2022-10-18T04:17:57.645Z,100655.34
2022-10-18T04:20:59.430Z,100655.00
2022-10-18T04:24:01.207Z,100656.47
2022-10-18T04:27:03.078Z,100664.75
2022-10-18T04:30:05.353Z,100666.84
2022-10-18T04:33:07.076Z,100661.91
2022-10-18T04:36:08.914Z,100661.56
2022-10-18T04:39:10.760Z,100673.47
2022-10-18T04:42:12.567Z,100664.91
2022-10-18T04:45:14.501Z,100674.25
2022-10-18T04:48:16.772Z,100661.31
2022-10-18T04:51:18.577Z,100663.50
2022-10-18T04:54:21.896Z,100673.59
2022-10-18T04:57:25.682Z,100662.44
2022-10-18T05:00:28.251Z,100673.50
2022-10-18T05:03:30.063Z,100665.13
2022-10-18T05:06:31.787Z,100643.41
2022-10-18T05:09:34.041Z,100650.09
2022-10-18T05:12:35.890Z,100663.09
2022-10-18T05:15:37.710Z,100664.31
2022-10-18T05:18:39.559Z,100656.47
2022-10-18T05:21:41.357Z,100655.00
2022-10-18T05:24:43.102Z,100665.09
2022-10-18T05:27:44.937Z,100667.03
2022-10-18T05:30:46.730Z,100666.31
2022-10-18T05:33:48.551Z,100666.53
2022-10-18T05:36:50.421Z,100655.47
2022-10-18T05:39:52.209Z,100665.44
2022-10-18T05:42:54.016Z,100662.97
2022-10-18T05:45:55.929Z,100658.84
2022-10-18T05:48:57.791Z,100656.38
2022-10-18T05:51:59.543Z,100662.53
2022-10-18T05:55:01.827Z,100661.66
2022-10-18T05:58:04.269Z,100652.88
2022-10-18T06:01:06.979Z,100656.47
2022-10-18T06:04:13.059Z,100658.38
2022-10-18T06:07:14.868Z,100654.94
2022-10-18T06:10:16.843Z,100660.47
2022-10-18T06:13:18.811Z,100643.50
2022-10-18T06:16:22.671Z,100640.75
2022-10-18T06:19:24.468Z,100637.16
2022-10-18T06:22:26.197Z,100634.91
2022-10-18T06:25:28.018Z,100628.59
2022-10-18T06:28:30.303Z,100640.75
2022-10-18T06:31:32.135Z,100645.19
2022-10-18T06:34:34.538Z,100643.38
2022-10-18T06:37:37.677Z,100639.06
2022-10-18T06:40:39.487Z,100646.56
2022-10-18T06:43:41.320Z,100639.50
2022-10-18T06:46:45.016Z,100640.78
2022-10-18T06:49:46.804Z,100645.84
2022-10-18T06:52:49.570Z,100643.56
2022-10-18T06:55:51.564Z,100637.72
2022-10-18T06:58:53.564Z,100638.75
2022-10-18T07:01:55.411Z,100637.13
2022-10-18T07:04:57.442Z,100635.38
2022-10-18T07:07:59.380Z,100611.28
2022-10-18T07:11:01.825Z,100608.13
2022-10-18T07:14:04.963Z,100612.91
2022-10-18T07:17:06.837Z,100608.47
2022-10-18T07:20:09.069Z,100600.31
2022-10-18T07:23:11.710Z,100590.75
2022-10-18T07:26:21.065Z,100583.66
2022-10-18T07:29:23.004Z,100576.16
2022-10-18T07:32:24.853Z,100584.22
2022-10-18T07:35:26.672Z,100576.78
2022-10-18T07:38:28.504Z,100565.66
2022-10-18T07:41:33.225Z,100574.38
2022-10-18T07:44:35.148Z,100559.06
2022-10-18T07:47:37.280Z,100566.56
2022-10-18T07:50:39.384Z,100574.66
2022-10-18T07:53:41.174Z,100567.78
2022-10-18T07:56:43.207Z,100572.22
2022-10-18T07:59:47.991Z,100568.50
2022-10-18T08:02:49.722Z,100564.97
2022-10-18T08:05:53.319Z,100561.25
2022-10-18T08:08:55.134Z,100559.41
2022-10-18T08:11:57.019Z,100552.97
2022-10-18T08:14:58.747Z,100546.91
2022-10-18T08:18:00.556Z,100538.66
2022-10-18T08:21:04.961Z,100542.19
2022-10-18T08:24:06.953Z,100544.66
2022-10-18T08:27:08.751Z,100535.59
2022-10-18T08:30:10.922Z,100530.25
2022-10-18T08:33:12.739Z,100529.81
2022-10-18T08:36:16.885Z,100531.66
2022-10-18T08:39:18.608Z,100520.06
2022-10-18T08:42:29.816Z,100512.25
2022-10-18T08:45:42.483Z,100506.63
2022-10-18T08:48:50.417Z,100508.50
2022-10-18T08:51:52.984Z,100497.34
2022-10-18T08:55:18.646Z,100494.06
2022-10-18T08:58:26.727Z,100484.47
2022-10-18T09:02:15.563Z,100487.94
2022-10-18T09:05:20.604Z,100477.78
2022-10-18T09:09:00.655Z,100464.47
2022-10-18T09:12:17.365Z,100460.28
2022-10-18T09:15:59.951Z,100463.75
2022-10-18T09:19:26.635Z,100456.56
2022-10-18T09:22:53.325Z,100464.84
2022-10-18T09:26:13.884Z,100449.34
2022-10-18T09:29:28.947Z,100451.09
2022-10-18T09:32:33.992Z,100446.38
2022-10-18T09:35:49.399Z,100447.28
2022-10-18T09:39:00.589Z,100438.34
2022-10-18T09:42:26.954Z,100438.72
2022-10-18T09:45:39.900Z,100430.31
2022-10-18T09:48:51.290Z,100421.13
2022-10-18T09:51:54.099Z,100422.03
2022-10-18T09:55:03.325Z,100413.94
2022-10-18T09:58:08.067Z,100405.75
2022-10-18T10:01:12.990Z,100399.03
2022-10-18T10:04:15.454Z,100400.75
2022-10-18T10:07:21.980Z,100397.59
2022-10-18T10:10:25.894Z,100398.38
2022-10-18T10:13:28.007Z,100396.69
2022-10-18T10:16:30.188Z,100388.69
2022-10-18T10:19:53.612Z,100387.44
2022-10-18T10:23:06.219Z,100376.31
2022-10-18T10:26:22.087Z,100366.34
2022-10-18T10:30:01.543Z,100371.63
2022-10-18T10:33:26.830Z,100364.38
2022-10-18T10:36:32.199Z,100357.25
2022-10-18T10:39:33.981Z,100355.81
2022-10-18T10:42:39.089Z,100340.16
2022-10-18T10:46:08.911Z,100339.25
2022-10-18T10:49:39.119Z,100337.59
2022-10-18T10:52:43.598Z,100334.66
2022-10-18T10:55:46.295Z,100331.94
2022-10-18T10:58:49.023Z,100322.50
2022-10-18T11:02:20.635Z,100319.59
2022-10-18T11:05:29.466Z,100314.56
2022-10-18T11:08:42.077Z,100317.44
2022-10-18T11:11:55.463Z,100311.75
2022-10-18T11:15:32.804Z,100304.03
2022-10-18T11:18:36.838Z,100295.44
2022-10-18T11:21:40.113Z,100295.59
2022-10-18T11:24:41.987Z,100285.56
2022-10-18T11:27:55.261Z,100268.81
2022-10-18T11:31:20.168Z,100273.22
2022-10-18T11:34:24.953Z,100269.66
2022-10-18T11:37:38.412Z,100263.84
2022-10-18T11:40:43.342Z,100256.91
2022-10-18T11:44:02.634Z,100255.84
2022-10-18T11:47:20.180Z,100246.00
2022-10-18T11:50:30.785Z,100242.06
2022-10-18T11:53:41.000Z,100242.06
2022-10-18T11:56:57.835Z,100233.84
2022-10-18T12:00:08.991Z,100231.34
2022-10-18T12:03:42.737Z,100226.09
2022-10-18T12:06:47.400Z,100222.34
2022-10-18T12:09:53.297Z,100220.69
2022-10-18T12:13:02.051Z,100214.00
2022-10-18T12:16:07.111Z,100211.41
2022-10-18T12:19:23.407Z,100213.47
2022-10-18T12:22:36.036Z,100210.91
2022-10-18T12:25:42.040Z,100202.31
2022-10-18T12:28:47.031Z,100216.53
2022-10-18T12:31:54.641Z,100210.63
2022-10-18T12:35:16.400Z,100208.75
2022-10-18T12:38:25.283Z,100193.22
2022-10-18T12:41:30.270Z,100197.63
2022-10-18T12:44:34.612Z,100201.78
2022-10-18T12:47:36.737Z,100198.59
2022-10-18T12:50:42.153Z,100185.44
2022-10-18T12:53:50.524Z,100188.94
2022-10-18T12:56:52.733Z,100185.97
2022-10-18T12:59:54.621Z,100177.56
2022-10-18T13:03:25.693Z,100178.78
2022-10-18T13:07:05.513Z,100168.91
2022-10-18T13:10:10.148Z,100173.69
2022-10-18T13:13:38.564Z,100166.16
2022-10-18T13:16:55.255Z,100164.84
2022-10-18T13:20:25.181Z,100158.78
2022-10-18T13:23:59.656Z,100163.50
2022-10-18T13:27:24.528Z,100154.31
2022-10-18T13:30:50.548Z,100153.22
2022-10-18T13:33:52.709Z,100139.97
2022-10-18T13:37:25.664Z,100142.66
2022-10-18T13:40:27.537Z,100124.47
2022-10-18T13:43:54.347Z,100119.38
2022-10-18T13:46:56.122Z,100117.63
2022-10-18T13:53:43.318Z,100102.69
2022-10-18T13:57:09.547Z,100088.22
2022-10-18T14:00:49.116Z,100082.75
2022-10-18T14:04:20.306Z,100081.38
2022-10-18T14:07:25.488Z,100073.75
2022-10-18T14:11:01.292Z,100069.66
2022-10-18T14:14:13.729Z,100069.19
2022-10-18T14:17:43.076Z,100066.94
2022-10-18T14:21:12.175Z,100062.84
2022-10-18T14:24:23.544Z,100066.00
2022-10-18T14:27:34.386Z,100053.13
2022-10-18T14:30:37.413Z,100053.78
2022-10-18T14:33:43.008Z,100043.25
2022-10-18T14:36:48.460Z,100043.50
2022-10-18T14:39:50.585Z,100037.53
2022-10-18T14:42:52.359Z,100040.31
2022-10-18T14:45:54.207Z,100033.31
2022-10-18T14:49:01.427Z,100030.91
2022-10-18T14:52:03.281Z,100028.56
2022-10-18T14:55:05.570Z,100026.56
2022-10-18T14:58:15.911Z,100027.66
2022-10-18T15:01:20.410Z,100029.75
2022-10-18T15:04:27.832Z,100035.22
2022-10-18T15:07:32.350Z,100030.22
2022-10-18T15:10:35.299Z,100024.88
2022-10-18T15:13:41.834Z,100020.91
2022-10-18T15:16:43.959Z,100024.34
2022-10-18T15:19:57.724Z,100025.53
2022-10-18T15:23:24.498Z,100013.94
2022-10-18T15:26:29.963Z,100009.59
2022-10-18T15:29:33.460Z,100006.59
2022-10-18T15:32:35.581Z,99998.84
2022-10-18T15:35:39.135Z,99999.38
2022-10-18T15:38:40.974Z,99997.03
2022-10-18T15:42:05.241Z,99994.88
2022-10-18T15:45:33.504Z,99995.22
2022-10-18T15:48:40.569Z,99996.56
2022-10-18T15:51:49.977Z,99995.06
2022-10-18T15:54:51.795Z,99984.97
2022-10-18T15:57:53.644Z,99987.84
2022-10-18T16:01:02.521Z,100001.69
2022-10-18T16:04:19.022Z,99993.09
2022-10-18T16:07:21.281Z,99996.66
2022-10-18T16:10:23.124Z,99998.38
2022-10-18T16:13:26.331Z,99994.19
2022-10-18T16:16:29.337Z,100003.81
2022-10-18T16:19:32.273Z,99994.38
2022-10-18T16:22:36.307Z,99993.06
2022-10-18T16:25:39.071Z,99996.25
2022-10-18T16:28:41.028Z,100002.16
2022-10-18T16:31:43.143Z,99997.28
2022-10-18T16:34:44.918Z,99992.59
2022-10-18T16:37:46.868Z,99981.81
2022-10-18T16:40:48.794Z,99971.72
2022-10-18T16:43:51.535Z,99967.69
2022-10-18T16:46:54.111Z,99963.31
2022-10-18T16:50:01.513Z,99961.16
2022-10-18T16:53:05.951Z,99960.81
2022-10-18T16:56:22.341Z,99953.06
2022-10-18T16:59:29.427Z,99952.56
2022-10-18T17:02:31.518Z,99952.88
2022-10-18T17:05:33.832Z,99938.06
2022-10-18T17:08:35.732Z,99924.94
2022-10-18T17:11:37.554Z,99927.81
2022-10-18T17:14:39.376Z,99926.47
2022-10-18T17:17:41.275Z,99913.50
2022-10-18T17:20:43.658Z,99913.69
2022-10-18T17:23:45.625Z,99906.28
2022-10-18T17:26:47.470Z,99898.72
2022-10-18T17:29:49.535Z,99899.38
2022-10-18T17:32:51.378Z,99897.03
2022-10-18T17:35:53.219Z,99887.44
2022-10-18T17:38:55.519Z,99877.88
2022-10-18T17:41:57.655Z,99877.88
2022-10-18T17:44:59.564Z,99889.81
2022-10-18T17:48:02.470Z,99871.13
2022-10-18T17:51:13.237Z,99870.63
2022-10-18T17:54:15.151Z,99871.97
2022-10-18T17:57:17.627Z,99871.47
2022-10-18T18:00:19.598Z,99860.53
2022-10-18T18:03:21.534Z,99865.25
2022-10-18T18:06:33.950Z,99855.50
2022-10-18T18:09:35.774Z,99845.25
2022-10-18T18:12:37.538Z,99844.72
2022-10-18T18:15:39.387Z,99843.06
2022-10-18T18:18:41.605Z,99838.00
2022-10-18T18:21:43.602Z,99842.88
2022-10-18T18:24:45.607Z,99837.50
2022-10-18T18:27:47.489Z,99834.63
2022-10-18T18:30:49.470Z,99831.13
2022-10-18T18:33:54.430Z,99825.72
2022-10-18T18:36:56.421Z,99825.06
2022-10-18T18:39:58.337Z,99822.72
2022-10-18T18:43:07.074Z,99823.88
2022-10-18T18:46:14.212Z,99821.88
2022-10-18T18:49:16.068Z,99817.16
2022-10-18T18:52:17.857Z,99816.66
2022-10-18T18:55:19.687Z,99816.13
2022-10-18T18:58:21.511Z,99806.72
2022-10-18T19:01:26.289Z,99801.00
2022-10-18T19:04:29.150Z,99794.28
2022-10-18T19:07:31.250Z,99792.41
2022-10-18T19:10:33.396Z,99790.38
2022-10-18T19:13:35.367Z,99798.78
2022-10-18T19:16:45.618Z,99798.44
2022-10-18T19:19:47.500Z,99791.50
2022-10-18T19:22:49.446Z,99792.84
2022-10-18T19:25:51.253Z,99784.44
2022-10-18T19:28:53.337Z,99778.38
2022-10-18T19:31:57.620Z,99779.56
2022-10-18T19:34:59.373Z,99780.72
2022-10-18T19:38:01.188Z,99771.31
2022-10-18T19:41:02.955Z,99771.31
2022-10-18T19:44:05.012Z,99764.25
2022-10-18T19:47:09.990Z,99763.56
2022-10-18T19:50:11.796Z,99759.38
2022-10-18T19:53:13.613Z,99757.69
2022-10-18T19:56:19.860Z,99751.81
2022-10-18T19:59:22.878Z,99750.44
2022-10-18T20:02:24.686Z,99742.72
2022-10-18T20:05:26.777Z,99741.19
2022-10-18T20:08:31.434Z,99729.94
2022-10-18T20:11:34.202Z,99727.28
2022-10-18T20:14:35.990Z,99726.75
2022-10-18T20:17:37.909Z,99716.66
2022-10-18T20:20:40.419Z,99717.50
2022-10-18T20:23:44.763Z,99713.47
2022-10-18T20:26:46.629Z,99701.88
2022-10-18T20:29:48.460Z,99700.22
2022-10-18T20:32:53.611Z,99690.97
2022-10-18T20:35:55.527Z,99687.25
2022-10-18T20:38:57.994Z,99686.56
2022-10-18T20:41:59.830Z,99679.00
2022-10-18T20:45:01.774Z,99677.31
2022-10-18T20:48:03.637Z,99672.28
2022-10-18T20:51:12.717Z,99674.44
2022-10-18T20:54:14.501Z,99669.56
2022-10-18T20:57:16.199Z,99666.38
2022-10-18T21:00:18.090Z,99658.66
2022-10-18T21:03:19.863Z,99652.59
2022-10-18T21:06:30.756Z,99653.59
2022-10-18T21:09:32.487Z,99636.84
2022-10-18T21:12:35.171Z,99645.19
2022-10-18T21:15:37.274Z,99640.00
2022-10-18T21:18:40.435Z,99633.13
2022-10-18T21:21:44.100Z,99631.06
2022-10-18T21:24:46.601Z,99618.50
2022-10-18T21:27:48.487Z,99624.50
2022-10-18T21:30:50.270Z,99617.63
2022-10-18T21:33:55.227Z,99606.56
2022-10-18T21:36:56.921Z,99609.41
2022-10-18T21:39:58.738Z,99605.03
2022-10-18T21:43:00.565Z,99596.63
2022-10-18T21:46:02.583Z,99597.16
2022-10-18T21:49:04.373Z,99585.91
2022-10-18T21:52:06.506Z,99591.06
2022-10-18T21:55:08.555Z,99583.19
2022-10-18T21:58:10.554Z,99576.47
2022-10-18T22:01:19.697Z,99571.56
2022-10-18T22:04:23.874Z,99571.72
2022-10-18T22:07:25.690Z,99570.34
2022-10-18T22:10:27.436Z,99562.47
2022-10-18T22:13:29.234Z,99564.16
2022-10-18T22:16:31.034Z,99558.25
2022-10-18T22:19:32.816Z,99559.25
2022-10-18T22:22:34.580Z,99556.91
2022-10-18T22:25:36.795Z,99549.50
2022-10-18T22:28:40.304Z,99552.38
2022-10-18T22:31:45.854Z,99538.94
2022-10-18T22:34:47.643Z,99531.59
2022-10-18T22:37:49.435Z,99529.06
2022-10-18T22:40:51.858Z,99522.34
2022-10-18T22:43:55.543Z,99522.34
2022-10-18T22:46:59.116Z,99518.16
2022-10-18T22:50:00.877Z,99516.78
2022-10-18T22:53:02.637Z,99510.09
2022-10-18T22:56:05.428Z,99503.03
2022-10-18T22:59:07.187Z,99501.38
2022-10-18T23:02:09.708Z,99494.50
2022-10-18T23:05:11.649Z,99489.28
2022-10-18T23:08:14.257Z,99494.13
2022-10-18T23:11:16.579Z,99484.09
2022-10-18T23:14:18.863Z,99492.28
2022-10-18T23:17:20.628Z,99482.41
2022-10-18T23:20:22.423Z,99474.53
2022-10-18T23:23:24.252Z,99471.19
2022-10-18T23:26:27.724Z,99465.16
2022-10-18T23:29:29.520Z,99469.81
2022-10-18T23:32:31.785Z,99461.44
2022-10-18T23:35:33.778Z,99446.22
2022-10-18T23:38:36.685Z,99450.88
2022-10-18T23:41:38.318Z,99441.66
2022-10-18T23:44:40.121Z,99434.31
2022-10-18T23:47:41.846Z,99430.78
2022-10-18T23:50:43.742Z,99423.91
2022-10-18T23:53:45.557Z,99419.56
2022-10-18T23:56:47.367Z,99415.38
2022-10-18T23:59:49.206Z,99410.50
